Time;durP1;ratioP1;P1;durP2;ratioP2;P2;SDS_P1;SDS_P2;PMS_P1;PMS_P2;Temp;Humidity;BMP_temperature;BMP_pressure;BME280_temperature;BME280_humidity;BME280_pressure;Samples;Min_cycle;Max_cycle;Signal;HPM_P1;HPM_P2
2023/06/10 00:03:31;;;;;;;1.80;1.70;;;25.10;54.80;;;;;;222513;1268;25314;-54
2023/06/10 00:08:37;;;;;;;2.10;2.00;;;25.00;54.90;;;;;;222453;1268;24196;-55
2023/06/10 00:13:41;;;;;;;2.10;2.00;;;25.00;54.70;;;;;;222470;1268;22503;-52
2023/06/10 00:18:46;;;;;;;2.00;1.90;;;24.90;55.20;;;;;;222296;1268;22522;-54
2023/06/10 00:23:51;;;;;;;2.00;1.90;;;24.90;55.30;;;;;;222502;1268;26495;-50
2023/06/10 00:28:55;;;;;;;2.20;2.10;;;24.80;55.10;;;;;;222521;1268;24187;-53
2023/06/10 00:33:59;;;;;;;2.10;2.00;;;24.80;55.00;;;;;;222390;1268;24183;-53
2023/06/10 00:39:04;;;;;;;2.10;2.00;;;24.90;55.10;;;;;;222654;1265;22535;-54
2023/06/10 00:44:09;;;;;;;2.20;2.10;;;24.80;55.40;;;;;;222424;1265;22519;-53
2023/06/10 00:49:13;;;;;;;2.10;2.00;;;24.80;55.40;;;;;;222494;1268;22995;-52
2023/06/10 00:54:18;;;;;;;2.00;1.90;;;24.90;55.00;;;;;;222574;1265;25402;-53
2023/06/10 00:59:25;;;;;;;1.90;1.80;;;24.90;55.10;;;;;;222526;1268;24357;-53
2023/06/10 01:04:31;;;;;;;2.30;2.10;;;24.90;55.00;;;;;;222560;1268;22868;-53
2023/06/10 01:09:49;;;;;;;1.90;1.80;;;24.90;55.00;;;;;;222553;1268;22514;-53
2023/06/10 01:14:55;;;;;;;2.10;2.00;;;25.00;54.90;;;;;;222674;1268;22647;-52
2023/06/10 01:19:59;;;;;;;2.30;2.20;;;24.90;55.30;;;;;;222515;1264;25249;-54
2023/06/10 01:25:07;;;;;;;2.10;2.00;;;24.90;55.10;;;;;;222697;1268;26541;-56
2023/06/10 01:30:20;;;;;;;2.00;1.90;;;24.90;55.00;;;;;;222701;1268;24216;-57
2023/06/10 01:35:26;;;;;;;2.00;1.90;;;24.90;54.90;;;;;;222616;1267;24184;-57
2023/06/10 01:40:32;;;;;;;2.00;1.90;;;24.80;55.00;;;;;;222470;1268;22737;-53
2023/06/10 01:45:36;;;;;;;2.10;2.00;;;24.80;55.10;;;;;;222421;1268;24217;-52
2023/06/10 01:50:40;;;;;;;2.20;2.10;;;24.90;55.00;;;;;;222245;1268;22504;-55
2023/06/10 01:55:45;;;;;;;2.20;2.10;;;24.90;55.00;;;;;;222612;1268;22520;-53
2023/06/10 02:00:49;;;;;;;1.80;1.70;;;24.80;55.10;;;;;;222432;1268;23892;-52
2023/06/10 02:05:53;;;;;;;1.90;1.80;;;24.90;55.10;;;;;;222486;1268;22644;-54
2023/06/10 02:10:57;;;;;;;2.10;2.00;;;24.90;55.10;;;;;;222157;1268;258967;-53
2023/06/10 02:16:05;;;;;;;2.10;2.00;;;24.80;55.10;;;;;;222345;1268;22565;-55
2023/06/10 02:21:10;;;;;;;2.00;1.90;;;24.80;55.10;;;;;;222598;1268;22522;-52
2023/06/10 02:26:14;;;;;;;2.40;2.30;;;24.80;54.70;;;;;;222632;1268;24260;-57
2023/06/10 02:31:19;;;;;;;2.50;2.30;;;24.80;55.10;;;;;;222516;1265;24197;-53
2023/06/10 02:36:24;;;;;;;2.30;2.20;;;24.80;55.10;;;;;;222365;1265;25285;-54
2023/06/10 02:41:28;;;;;;;2.00;1.90;;;24.80;55.20;;;;;;222604;1268;22809;-52
2023/06/10 02:46:33;;;;;;;2.30;2.20;;;24.80;55.10;;;;;;222426;1268;25676;-57
2023/06/10 02:51:39;;;;;;;2.10;2.00;;;24.80;55.20;;;;;;222466;1268;22524;-53
2023/06/10 02:56:45;;;;;;;2.20;2.10;;;24.80;55.40;;;;;;222831;1268;22575;-52
2023/06/10 03:01:53;;;;;;;2.00;1.90;;;24.80;55.10;;;;;;222497;1268;24180;-55
2023/06/10 03:07:03;;;;;;;2.10;2.00;;;24.70;55.00;;;;;;222940;1268;22504;-51
2023/06/10 03:12:10;;;;;;;2.20;2.10;;;24.80;55.10;;;;;;222558;1255;22614;-53
2023/06/10 03:17:18;;;;;;;1.80;1.70;;;24.70;55.40;;;;;;222633;1266;22511;-54
2023/06/10 03:22:22;;;;;;;1.90;1.80;;;24.70;55.60;;;;;;222612;1265;22518;-54
2023/06/10 03:27:42;;;;;;;2.00;1.90;;;24.70;55.00;;;;;;222824;1268;25483;-56
2023/06/10 03:32:49;;;;;;;2.30;2.20;;;24.70;55.20;;;;;;222506;1268;25305;-55
2023/06/10 03:37:54;;;;;;;2.30;2.20;;;24.70;55.10;;;;;;222675;1266;24749;-55
2023/06/10 03:42:59;;;;;;;1.90;1.80;;;24.70;55.30;;;;;;222541;1268;24161;-53
2023/06/10 03:48:06;;;;;;;2.00;1.90;;;24.70;55.10;;;;;;222569;1262;25306;-58
2023/06/10 03:53:19;;;;;;;2.10;2.00;;;24.70;55.10;;;;;;222673;1268;24219;-52
2023/06/10 03:58:23;;;;;;;2.10;2.00;;;24.70;55.10;;;;;;222532;1264;24032;-53
2023/06/10 04:03:28;;;;;;;2.10;2.00;;;24.60;55.30;;;;;;222595;1268;23473;-54
2023/06/10 04:08:33;;;;;;;2.00;1.90;;;24.70;55.20;;;;;;222670;1268;23283;-54
2023/06/10 04:13:38;;;;;;;2.10;2.00;;;24.60;55.30;;;;;;222536;1268;22633;-52
2023/06/10 04:18:43;;;;;;;2.00;1.90;;;24.70;55.30;;;;;;222580;1268;26465;-50
2023/06/10 04:23:48;;;;;;;1.90;1.80;;;24.60;55.30;;;;;;222654;1268;24180;-53
2023/06/10 04:28:53;;;;;;;2.30;2.20;;;24.70;55.20;;;;;;222620;1268;22514;-55
2023/06/10 04:33:57;;;;;;;2.10;2.00;;;24.60;55.30;;;;;;222467;1266;22522;-58
2023/06/10 04:39:02;;;;;;;2.40;2.30;;;24.60;55.60;;;;;;222858;1268;22526;-54
2023/06/10 04:44:07;;;;;;;2.50;2.40;;;24.60;55.20;;;;;;222820;1268;24171;-55
2023/06/10 04:49:14;;;;;;;2.00;1.90;;;24.60;55.30;;;;;;222667;1267;22492;-54
2023/06/10 04:54:18;;;;;;;2.30;2.20;;;24.70;55.20;;;;;;222503;1267;24716;-55
2023/06/10 04:59:22;;;;;;;2.20;2.10;;;24.60;55.20;;;;;;222520;1268;22506;-55
2023/06/10 05:04:26;;;;;;;2.10;2.00;;;24.60;55.20;;;;;;222536;1267;22766;-51
2023/06/10 05:09:30;;;;;;;2.00;1.90;;;24.70;55.20;;;;;;222579;1267;23057;-52
2023/06/10 05:14:35;;;;;;;1.90;1.80;;;24.60;55.30;;;;;;222335;1268;24194;-55
2023/06/10 05:19:39;;;;;;;2.40;2.30;;;24.60;55.20;;;;;;222440;1268;22984;-54
2023/06/10 05:24:44;;;;;;;2.20;2.10;;;24.60;55.30;;;;;;222534;1266;22504;-50
2023/06/10 05:29:49;;;;;;;2.10;2.00;;;24.70;55.10;;;;;;222406;1268;22526;-54
2023/06/10 05:34:53;;;;;;;2.10;2.00;;;24.70;55.40;;;;;;222269;1268;25273;-56
2023/06/10 05:39:57;;;;;;;2.10;2.00;;;24.70;55.30;;;;;;222300;1268;25489;-54
2023/06/10 05:45:03;;;;;;;2.10;2.00;;;24.70;55.00;;;;;;222368;1268;22508;-55
2023/06/10 05:50:08;;;;;;;2.20;2.00;;;24.60;55.20;;;;;;222540;1256;22631;-54
2023/06/10 05:55:12;;;;;;;2.10;2.00;;;24.60;55.30;;;;;;222343;1268;23777;-55
2023/06/10 06:00:17;;;;;;;2.00;1.90;;;24.50;55.00;;;;;;222576;1268;24749;-56
2023/06/10 06:05:21;;;;;;;2.50;2.40;;;24.50;55.50;;;;;;222370;1268;22514;-52
2023/06/10 06:10:25;;;;;;;1.90;1.80;;;24.50;55.50;;;;;;222473;1268;22644;-55
2023/06/10 06:15:29;;;;;;;2.30;2.20;;;24.50;55.60;;;;;;222413;1268;22513;-54
2023/06/10 06:20:34;;;;;;;2.20;2.10;;;24.50;55.60;;;;;;222708;1265;25498;-53
2023/06/10 06:25:38;;;;;;;2.00;1.90;;;24.50;55.50;;;;;;222508;1268;22508;-55
2023/06/10 06:30:43;;;;;;;2.20;2.10;;;24.50;55.50;;;;;;222541;1269;24736;-55
2023/06/10 06:35:47;;;;;;;2.50;2.30;;;24.50;55.40;;;;;;222448;1269;23917;-56
2023/06/10 06:40:51;;;;;;;2.20;2.10;;;24.60;55.50;;;;;;222166;1269;22791;-54
2023/06/10 06:45:57;;;;;;;2.10;2.00;;;24.50;55.40;;;;;;222192;1268;25268;-52
2023/06/10 06:51:01;;;;;;;2.10;2.00;;;24.50;55.50;;;;;;222186;1269;25512;-53
2023/06/10 06:56:05;;;;;;;2.80;2.50;;;24.50;55.30;;;;;;222078;1268;22508;-54
2023/06/10 07:01:10;;;;;;;2.00;1.90;;;24.60;55.30;;;;;;222444;1269;22511;-53
2023/06/10 07:06:14;;;;;;;2.40;2.30;;;24.60;55.40;;;;;;222311;1269;22508;-55
2023/06/10 07:11:18;;;;;;;2.20;2.10;;;24.60;55.30;;;;;;222252;1265;25554;-53
2023/06/10 07:16:23;;;;;;;2.20;2.10;;;24.60;55.30;;;;;;222335;1267;22520;-54
2023/06/10 07:21:28;;;;;;;2.20;2.10;;;24.60;55.30;;;;;;222094;1269;22638;-53
2023/06/10 07:26:32;;;;;;;2.10;2.00;;;24.60;55.30;;;;;;221957;1269;24335;-53
2023/06/10 07:31:37;;;;;;;2.20;2.10;;;24.60;55.30;;;;;;222414;1268;22724;-53
2023/06/10 07:36:41;;;;;;;2.30;2.20;;;24.60;55.60;;;;;;222513;1268;22647;-55
2023/06/10 07:41:45;;;;;;;2.50;2.40;;;24.60;55.30;;;;;;222350;1268;24312;-56
2023/06/10 07:46:50;;;;;;;2.20;2.10;;;24.70;55.30;;;;;;222428;1268;24167;-51
2023/06/10 07:51:55;;;;;;;2.20;2.10;;;24.70;55.10;;;;;;222305;1268;23892;-54
2023/06/10 07:56:59;;;;;;;2.40;2.30;;;24.70;55.00;;;;;;222574;1268;22583;-53
2023/06/10 08:02:04;;;;;;;2.20;2.10;;;24.70;55.00;;;;;;222563;1268;22665;-54
2023/06/10 08:07:09;;;;;;;2.30;2.20;;;24.80;55.00;;;;;;222698;1265;22624;-52
2023/06/10 08:12:13;;;;;;;2.20;2.10;;;24.80;55.40;;;;;;222640;1267;22519;-57
2023/06/10 08:17:18;;;;;;;2.10;2.00;;;24.80;54.90;;;;;;222652;1266;22522;-51
2023/06/10 08:22:22;;;;;;;2.40;2.20;;;24.80;55.20;;;;;;222503;1268;22648;-50
2023/06/10 08:27:26;;;;;;;2.30;2.20;;;24.90;54.80;;;;;;222656;1268;22508;-54
2023/06/10 08:32:30;;;;;;;2.00;1.90;;;24.90;54.70;;;;;;222487;1269;22512;-54
2023/06/10 08:37:35;;;;;;;2.20;2.10;;;25.00;54.90;;;;;;222237;1269;22652;-52
2023/06/10 08:42:57;;;;;;;2.20;2.10;;;25.00;54.40;;;;;;222015;1269;22648;-55
2023/06/10 08:48:06;;;;;;;2.20;2.10;;;25.00;54.50;;;;;;222359;1269;22605;-55
2023/06/10 08:53:17;;;;;;;2.00;1.90;;;25.10;54.40;;;;;;222094;1269;22647;-54
2023/06/10 08:58:22;;;;;;;2.20;2.10;;;25.10;54.40;;;;;;222109;1269;25533;-53
2023/06/10 09:03:27;;;;;;;2.10;2.00;;;25.10;54.30;;;;;;222426;1265;25829;-54
2023/06/10 09:08:34;;;;;;;2.20;2.10;;;25.10;54.30;;;;;;222287;1269;25387;-57
2023/06/10 09:13:38;;;;;;;2.30;2.20;;;25.10;54.40;;;;;;222281;1255;22522;-54
2023/06/10 09:18:43;;;;;;;2.20;2.00;;;25.20;54.40;;;;;;222142;1269;22610;-53
2023/06/10 09:23:48;;;;;;;2.10;2.00;;;25.20;54.40;;;;;;222359;1269;24189;-54
2023/06/10 09:29:02;;;;;;;2.20;2.10;;;25.20;54.30;;;;;;222069;1269;22755;-52
2023/06/10 09:34:12;;;;;;;2.00;1.90;;;25.20;54.30;;;;;;222562;1268;25389;-56
2023/06/10 09:39:17;;;;;;;2.30;2.20;;;25.30;54.20;;;;;;222590;1268;22566;-55
2023/06/10 09:44:21;;;;;;;2.30;2.20;;;25.30;54.60;;;;;;222679;1268;22511;-55
2023/06/10 09:49:29;;;;;;;2.10;2.00;;;25.30;54.60;;;;;;222941;1257;22508;-53
2023/06/10 09:54:34;;;;;;;2.30;2.10;;;25.30;54.20;;;;;;222638;1259;22666;-53
2023/06/10 09:59:38;;;;;;;2.10;2.00;;;25.40;54.20;;;;;;222894;1257;22515;-58
2023/06/10 10:04:44;;;;;;;2.10;2.00;;;25.40;54.20;;;;;;222531;1268;24300;-52
2023/06/10 10:09:48;;;;;;;2.20;2.10;;;25.40;54.10;;;;;;222623;1268;22524;-51
2023/06/10 10:14:55;;;;;;;2.30;2.20;;;25.40;54.00;;;;;;222418;1268;22585;-54
2023/06/10 10:20:05;;;;;;;1.90;1.80;;;25.50;54.10;;;;;;222580;1266;24161;-54
2023/06/10 10:25:44;;;;;;;2.30;2.20;;;25.50;54.10;;;;;;222240;1268;25252;-53
2023/06/10 10:30:54;;;;;;;2.70;2.50;;;25.50;54.00;;;;;;222630;1262;22769;-52
2023/06/10 10:35:59;;;;;;;2.40;2.30;;;25.60;54.00;;;;;;222245;1269;22537;-52
2023/06/10 10:41:05;;;;;;;2.20;2.10;;;25.50;54.30;;;;;;222215;1269;22531;-53
2023/06/10 10:46:17;;;;;;;2.30;2.20;;;25.60;54.00;;;;;;222256;1268;25390;-51
2023/06/10 10:51:24;;;;;;;2.60;2.40;;;25.60;54.20;;;;;;222214;1269;26516;-57
2023/06/10 10:56:30;;;;;;;2.10;2.00;;;25.60;54.00;;;;;;222240;1263;24327;-53
2023/06/10 11:01:42;;;;;;;2.10;2.00;;;25.60;53.90;;;;;;222044;1269;24292;-50
2023/06/10 11:06:53;;;;;;;2.10;2.00;;;25.70;54.00;;;;;;222177;1269;23022;-50
2023/06/10 11:12:01;;;;;;;2.70;2.60;;;25.70;54.00;;;;;;222233;1269;25431;-50
2023/06/10 11:17:19;;;;;;;2.00;1.90;;;25.70;54.00;;;;;;222238;1269;25399;-52
2023/06/10 11:22:23;;;;;;;2.20;2.10;;;25.70;53.90;;;;;;222247;1269;24745;-53
2023/06/10 11:27:38;;;;;;;2.00;1.90;;;25.80;54.00;;;;;;222105;1269;23287;-49
2023/06/10 11:32:43;;;;;;;2.50;2.40;;;25.80;53.80;;;;;;222613;1265;25475;-50
2023/06/10 11:37:48;;;;;;;2.30;2.20;;;25.80;53.80;;;;;;222662;1268;22554;-54
2023/06/10 11:42:53;;;;;;;2.00;1.90;;;25.80;53.90;;;;;;222850;1268;22522;-53
2023/06/10 11:47:59;;;;;;;2.40;2.30;;;25.80;54.10;;;;;;222398;1268;22623;-56
2023/06/10 11:53:04;;;;;;;2.30;2.20;;;25.90;54.50;;;;;;222563;1268;23344;-56
2023/06/10 11:58:20;;;;;;;2.10;1.90;;;25.90;54.00;;;;;;222535;1268;22518;-55
2023/06/10 12:03:28;;;;;;;2.40;2.20;;;25.90;54.10;;;;;;222490;1268;22510;-55
2023/06/10 12:08:42;;;;;;;2.20;2.10;;;25.90;54.10;;;;;;222345;1268;25396;-53
2023/06/10 12:13:49;;;;;;;2.30;2.20;;;26.00;53.90;;;;;;222597;1267;22804;-53
2023/06/10 12:19:02;;;;;;;2.00;1.90;;;26.00;53.70;;;;;;222511;1266;22517;-53
2023/06/10 12:24:09;;;;;;;2.10;2.00;;;26.00;54.00;;;;;;222490;1268;24301;-54
2023/06/10 12:29:24;;;;;;;2.10;2.00;;;26.00;53.70;;;;;;222733;1265;24152;-53
2023/06/10 12:34:39;;;;;;;2.10;2.00;;;26.00;53.90;;;;;;222147;1269;22779;-53
2023/06/10 12:39:53;;;;;;;2.10;2.00;;;26.00;53.90;;;;;;222150;1269;22501;-55
2023/06/10 12:45:00;;;;;;;1.80;1.70;;;26.00;53.90;;;;;;222491;1269;22512;-54
2023/06/10 12:50:06;;;;;;;2.00;1.90;;;26.00;53.90;;;;;;222283;1269;22644;-54
2023/06/10 12:55:10;;;;;;;1.90;1.80;;;26.00;53.80;;;;;;222229;1269;24273;-53
2023/06/10 13:00:16;;;;;;;2.30;2.10;;;26.00;53.80;;;;;;222042;1269;22630;-52
2023/06/10 13:05:20;;;;;;;2.40;2.20;;;26.00;53.90;;;;;;221862;1269;22511;-53
2023/06/10 13:10:27;;;;;;;2.10;2.00;;;26.00;54.20;;;;;;221930;1269;25258;-54
2023/06/10 13:15:35;;;;;;;1.90;1.80;;;26.10;54.40;;;;;;222279;1269;22569;-57
2023/06/10 13:20:43;;;;;;;2.40;1.80;;;26.10;53.40;;;;;;222330;1269;24188;-51
2023/06/10 13:25:47;;;;;;;2.40;2.30;;;26.10;53.80;;;;;;222324;1269;25260;-54
2023/06/10 13:30:51;;;;;;;2.10;2.00;;;26.10;53.90;;;;;;222099;1268;22509;-54
2023/06/10 13:35:55;;;;;;;2.00;1.90;;;26.10;53.80;;;;;;222493;1268;24105;-54
2023/06/10 13:41:00;;;;;;;1.80;1.70;;;26.10;53.80;;;;;;222271;1268;22518;-52
2023/06/10 13:46:07;;;;;;;1.90;1.80;;;26.10;54.20;;;;;;222584;1268;24281;-54
2023/06/10 13:51:11;;;;;;;2.30;2.20;;;26.10;53.80;;;;;;222556;1267;22538;-56
2023/06/10 13:56:16;;;;;;;2.60;2.40;;;26.10;53.80;;;;;;222599;1266;24161;-56
2023/06/10 14:01:20;;;;;;;2.10;2.00;;;26.10;53.90;;;;;;222299;1268;22508;-54
2023/06/10 14:06:24;;;;;;;2.30;2.20;;;26.20;53.90;;;;;;222430;1268;22514;-53
2023/06/10 14:11:28;;;;;;;2.00;1.90;;;26.20;53.90;;;;;;222205;1268;232268;-53
2023/06/10 14:16:35;;;;;;;2.10;2.00;;;26.20;54.20;;;;;;222404;1268;24935;-57
2023/06/10 14:21:41;;;;;;;1.90;1.80;;;26.10;54.10;;;;;;222315;1268;22525;-58
2023/06/10 14:26:45;;;;;;;2.00;1.90;;;26.10;53.80;;;;;;222400;1268;22499;-52
2023/06/10 14:31:49;;;;;;;2.10;1.90;;;26.20;53.80;;;;;;222264;1269;22513;-54
2023/06/10 14:36:53;;;;;;;1.80;1.70;;;26.10;53.90;;;;;;221837;1269;25217;-52
2023/06/10 14:41:57;;;;;;;2.00;1.90;;;26.10;53.90;;;;;;222430;1267;22636;-53
2023/06/10 14:47:02;;;;;;;1.90;1.80;;;26.20;53.90;;;;;;222168;1269;22534;-51
2023/06/10 14:52:07;;;;;;;2.20;2.10;;;26.20;53.80;;;;;;222555;1264;22569;-51
2023/06/10 14:57:11;;;;;;;2.00;1.90;;;26.20;53.80;;;;;;222156;1269;22684;-55
2023/06/10 15:02:17;;;;;;;2.10;2.00;;;26.20;53.30;;;;;;222159;1269;22626;-52
2023/06/10 15:07:21;;;;;;;2.00;1.90;;;26.10;53.90;;;;;;222023;1269;22526;-56
2023/06/10 15:12:27;;;;;;;1.90;1.80;;;26.10;54.20;;;;;;222375;1269;24408;-54
2023/06/10 15:17:31;;;;;;;2.10;2.00;;;26.10;53.90;;;;;;222243;1268;26558;-54
2023/06/10 15:22:35;;;;;;;2.10;1.90;;;26.10;54.00;;;;;;222067;1269;22540;-56
2023/06/10 15:27:40;;;;;;;2.10;2.00;;;26.10;53.90;;;;;;222372;1269;23809;-53
2023/06/10 15:32:44;;;;;;;2.30;2.20;;;26.10;53.90;;;;;;222153;1268;22524;-57
2023/06/10 15:37:48;;;;;;;1.60;1.60;;;26.10;54.00;;;;;;222535;1267;25329;-55
2023/06/10 15:42:53;;;;;;;2.00;1.90;;;26.10;53.90;;;;;;222509;1268;22520;-55
2023/06/10 15:47:58;;;;;;;2.10;2.00;;;26.10;54.00;;;;;;222817;1266;22516;-54
2023/06/10 15:53:03;;;;;;;2.00;1.90;;;26.10;54.20;;;;;;222392;1268;25447;-54
2023/06/10 15:58:07;;;;;;;2.10;2.00;;;26.10;54.00;;;;;;222692;1268;22515;-57
2023/06/10 16:03:11;;;;;;;2.00;1.90;;;26.10;54.30;;;;;;222501;1268;22516;-55
2023/06/10 16:08:16;;;;;;;2.40;2.20;;;26.10;54.00;;;;;;222531;1268;22532;-56
2023/06/10 16:13:20;;;;;;;1.90;1.80;;;26.10;53.90;;;;;;222362;1268;24244;-56
2023/06/10 16:18:24;;;;;;;2.00;1.90;;;26.10;54.00;;;;;;222505;1268;22660;-53
2023/06/10 16:23:28;;;;;;;2.10;2.00;;;26.10;54.30;;;;;;222450;1268;22598;-53
2023/06/10 16:28:33;;;;;;;2.10;2.00;;;26.10;54.40;;;;;;222715;1268;22591;-54
2023/06/10 16:33:37;;;;;;;2.10;2.00;;;26.00;53.90;;;;;;222295;1268;24305;-53
2023/06/10 16:38:41;;;;;;;2.20;2.10;;;26.00;53.90;;;;;;222302;1268;22645;-54
2023/06/10 16:43:46;;;;;;;2.00;1.90;;;26.10;53.80;;;;;;222203;1268;25641;-52
2023/06/10 16:48:50;;;;;;;1.90;1.80;;;26.10;53.80;;;;;;222466;1268;22517;-53
2023/06/10 16:53:54;;;;;;;2.20;2.10;;;26.00;54.10;;;;;;222161;1268;22898;-52
2023/06/10 16:58:58;;;;;;;2.20;2.10;;;26.10;53.80;;;;;;222758;1262;24282;-51
2023/06/10 17:04:03;;;;;;;2.00;1.90;;;26.00;53.90;;;;;;222392;1268;24215;-52
2023/06/10 17:09:07;;;;;;;1.80;1.70;;;26.00;53.90;;;;;;222566;1268;25275;-55
2023/06/10 17:14:11;;;;;;;2.10;1.90;;;26.00;53.80;;;;;;222411;1268;25687;-54
2023/06/10 17:19:16;;;;;;;2.00;1.90;;;26.00;53.80;;;;;;222565;1266;22513;-56
2023/06/10 17:24:21;;;;;;;2.20;1.80;;;26.00;53.80;;;;;;222493;1262;22535;-53
2023/06/10 17:29:25;;;;;;;1.70;1.60;;;25.90;53.70;;;;;;222466;1266;22615;-55
2023/06/10 17:34:29;;;;;;;2.10;2.00;;;25.90;54.00;;;;;;222406;1268;24200;-54
2023/06/10 17:39:33;;;;;;;2.30;2.10;;;25.90;53.70;;;;;;222435;1268;22698;-55
2023/06/10 17:44:37;;;;;;;2.20;2.10;;;26.00;53.60;;;;;;222412;1268;25284;-55
2023/06/10 17:49:41;;;;;;;2.40;2.20;;;26.00;53.30;;;;;;222811;1268;24184;-56
2023/06/10 17:54:45;;;;;;;2.00;1.90;;;26.10;53.20;;;;;;222568;1268;25288;-58
2023/06/10 17:59:50;;;;;;;2.00;1.90;;;26.00;53.30;;;;;;222826;1268;22536;-50
2023/06/10 18:04:54;;;;;;;1.80;1.70;;;26.00;53.40;;;;;;222526;1268;24723;-54
2023/06/10 18:09:58;;;;;;;2.10;2.00;;;26.00;53.30;;;;;;222540;1264;22665;-56
2023/06/10 18:15:04;;;;;;;2.10;2.00;;;26.00;53.70;;;;;;222542;1268;25563;-58
2023/06/10 18:20:11;;;;;;;2.00;1.90;;;25.90;53.50;;;;;;222401;1268;24096;-52
2023/06/10 18:25:15;;;;;;;2.20;2.10;;;25.90;53.50;;;;;;222434;1268;24228;-54
2023/06/10 18:30:19;;;;;;;1.90;1.80;;;25.90;53.60;;;;;;222471;1263;25269;-54
2023/06/10 18:35:24;;;;;;;2.40;2.20;;;25.80;53.60;;;;;;222090;1269;24183;-55
2023/06/10 18:40:28;;;;;;;2.20;2.10;;;25.90;53.50;;;;;;222303;1267;26573;-53
2023/06/10 18:45:32;;;;;;;2.00;1.90;;;25.80;53.70;;;;;;222350;1269;23348;-57
2023/06/10 18:50:36;;;;;;;2.10;2.00;;;25.80;53.70;;;;;;222103;1269;24737;-54
2023/06/10 18:55:40;;;;;;;2.20;2.10;;;25.80;53.80;;;;;;222129;1266;25460;-53
2023/06/10 19:00:45;;;;;;;2.50;2.30;;;25.80;53.70;;;;;;222375;1267;22511;-54
2023/06/10 19:05:50;;;;;;;1.90;1.80;;;25.70;53.60;;;;;;222321;1269;22531;-53
2023/06/10 19:10:55;;;;;;;2.90;2.20;;;25.70;53.70;;;;;;222140;1260;24347;-56
2023/06/10 19:15:59;;;;;;;2.10;2.00;;;25.70;53.70;;;;;;222346;1269;22596;-55
2023/06/10 19:21:03;;;;;;;1.90;1.80;;;25.70;54.00;;;;;;222288;1268;22530;-52
2023/06/10 19:26:10;;;;;;;2.10;2.00;;;25.70;53.80;;;;;;222398;1269;25642;-49
2023/06/10 19:31:15;;;;;;;1.90;1.80;;;25.70;53.60;;;;;;222157;1269;24313;-54
2023/06/10 19:36:20;;;;;;;1.80;1.70;;;25.70;53.70;;;;;;222528;1268;25214;-55
2023/06/10 19:41:25;;;;;;;2.10;2.00;;;25.70;53.90;;;;;;222524;1268;22637;-57
2023/06/10 19:46:29;;;;;;;2.00;1.80;;;25.70;54.20;;;;;;222382;1268;25359;-53
2023/06/10 19:51:34;;;;;;;2.00;1.90;;;25.70;53.80;;;;;;222475;1265;22508;-53
2023/06/10 19:56:38;;;;;;;2.00;1.90;;;25.70;53.90;;;;;;222517;1268;22793;-52
2023/06/10 20:01:42;;;;;;;2.30;2.20;;;25.60;53.90;;;;;;222511;1268;25339;-54
2023/06/10 20:06:47;;;;;;;2.10;2.00;;;25.70;53.90;;;;;;222392;1268;22587;-57
2023/06/10 20:11:51;;;;;;;2.20;2.00;;;25.60;54.30;;;;;;222402;1268;22657;-50
2023/06/10 20:16:56;;;;;;;2.50;1.70;;;25.60;54.30;;;;;;222482;1268;22511;-55
2023/06/10 20:22:03;;;;;;;2.20;2.10;;;25.60;54.10;;;;;;222700;1267;22523;-53
2023/06/10 20:27:08;;;;;;;2.30;2.10;;;25.60;54.30;;;;;;222537;1267;22667;-55
2023/06/10 20:32:13;;;;;;;2.20;2.10;;;25.60;54.40;;;;;;222500;1262;22639;-55
2023/06/10 20:37:17;;;;;;;2.20;2.00;;;25.60;54.10;;;;;;222358;1269;22597;-54
2023/06/10 20:42:22;;;;;;;2.10;2.00;;;25.60;54.40;;;;;;222295;1269;24370;-55
2023/06/10 20:47:26;;;;;;;2.30;2.20;;;25.60;54.10;;;;;;222283;1269;22777;-53
2023/06/10 20:52:31;;;;;;;2.10;2.00;;;25.60;54.10;;;;;;222294;1264;24300;-52
2023/06/10 20:57:36;;;;;;;2.30;2.20;;;25.60;54.10;;;;;;222008;1269;24735;-54
2023/06/10 21:02:41;;;;;;;2.40;2.30;;;25.50;54.10;;;;;;222288;1258;24284;-53
2023/06/10 21:07:46;;;;;;;2.10;2.00;;;25.60;54.10;;;;;;222213;1269;22756;-56
2023/06/10 21:12:51;;;;;;;1.60;1.50;;;25.50;54.10;;;;;;222272;1265;24827;-54
2023/06/10 21:17:55;;;;;;;2.10;2.00;;;25.50;54.10;;;;;;222543;1269;23948;-57
2023/06/10 21:23:00;;;;;;;2.10;2.00;;;25.50;54.20;;;;;;222117;1269;23045;-52
2023/06/10 21:28:04;;;;;;;2.50;1.90;;;25.50;54.20;;;;;;222405;1269;24365;-58
2023/06/10 21:33:08;;;;;;;2.00;1.90;;;25.40;54.10;;;;;;222426;1263;22538;-54
2023/06/10 21:38:13;;;;;;;2.30;2.20;;;25.50;54.50;;;;;;222464;1268;25318;-57
2023/06/10 21:43:17;;;;;;;2.70;2.20;;;25.40;54.10;;;;;;222530;1268;24729;-53
2023/06/10 21:48:21;;;;;;;2.10;2.00;;;25.40;54.20;;;;;;222434;1268;24228;-53
2023/06/10 21:53:26;;;;;;;1.80;1.70;;;25.40;54.20;;;;;;222338;1268;24193;-55
2023/06/10 21:58:30;;;;;;;2.50;2.30;;;25.40;54.30;;;;;;222677;1262;24164;-53
2023/06/10 22:03:34;;;;;;;2.20;2.10;;;25.40;54.30;;;;;;222907;1268;24365;-57
2023/06/10 22:08:38;;;;;;;2.10;2.00;;;25.40;54.30;;;;;;222477;1268;22507;-52
2023/06/10 22:13:42;;;;;;;2.10;2.00;;;25.40;54.70;;;;;;222883;1268;24415;-53
2023/06/10 22:18:46;;;;;;;2.50;2.30;;;25.40;54.40;;;;;;222586;1268;22513;-55
2023/06/10 22:23:51;;;;;;;2.30;2.20;;;25.40;54.70;;;;;;222575;1268;24475;-54
2023/06/10 22:28:56;;;;;;;1.80;1.70;;;25.40;54.50;;;;;;222369;1268;22527;-52
2023/06/10 22:34:02;;;;;;;2.00;1.90;;;25.40;54.80;;;;;;222448;1268;22510;-54
2023/06/10 22:39:11;;;;;;;2.40;2.20;;;25.30;54.70;;;;;;222636;1268;24314;-53
2023/06/10 22:44:16;;;;;;;2.20;2.10;;;25.40;54.40;;;;;;222652;1268;25530;-53
2023/06/10 22:49:20;;;;;;;1.90;1.80;;;25.30;54.40;;;;;;222576;1262;22983;-54
2023/06/10 22:54:27;;;;;;;2.30;2.20;;;25.30;54.70;;;;;;222556;1246;24334;-54
2023/06/10 22:59:31;;;;;;;2.30;2.20;;;25.30;55.10;;;;;;222484;1268;23937;-54
2023/06/10 23:04:35;;;;;;;2.00;1.90;;;25.30;54.50;;;;;;222556;1268;22523;-53
2023/06/10 23:09:40;;;;;;;2.20;2.10;;;25.30;54.50;;;;;;222143;1268;24167;-54
2023/06/10 23:14:44;;;;;;;2.20;2.10;;;25.20;54.40;;;;;;222535;1268;24245;-55
2023/06/10 23:19:50;;;;;;;2.70;2.50;;;25.30;54.50;;;;;;222525;1254;25092;-54
2023/06/10 23:24:56;;;;;;;2.20;2.10;;;25.30;54.50;;;;;;222644;1268;22574;-52
2023/06/10 23:30:00;;;;;;;2.20;2.10;;;25.20;53.90;;;;;;222432;1263;22506;-52
2023/06/10 23:35:05;;;;;;;2.30;2.20;;;25.30;54.80;;;;;;222502;1265;25477;-55
2023/06/10 23:40:10;;;;;;;2.40;2.20;;;25.30;54.50;;;;;;222554;1267;22607;-53
2023/06/10 23:45:15;;;;;;;2.90;2.60;;;25.30;54.70;;;;;;222767;1262;25209;-53
2023/06/10 23:50:19;;;;;;;2.60;2.40;;;25.30;54.70;;;;;;222409;1268;24225;-55
2023/06/10 23:55:24;;;;;;;2.80;2.60;;;25.30;54.40;;;;;;222419;1268;22511;-56
